sensor_id;sensor_type;location;lat;lon;timestamp;P1;durP1;ratioP1;P2;durP2;ratioP2
22363;SDS011;11349;53.412;-1.328;2023-02-18T00:02:04;6.65;;;3.40;;
22363;SDS011;11349;53.412;-1.328;2023-02-18T00:04:30;5.57;;;3.30;;
22363;SDS011;11349;53.412;-1.328;2023-02-18T00:06:56;7.00;;;3.17;;
22363;SDS011;11349;53.412;-1.328;2023-02-18T00:09:22;4.25;;;2.20;;
22363;SDS011;11349;53.412;-1.328;2023-02-18T00:11:48;2.92;;;1.35;;
22363;SDS011;11349;53.412;-1.328;2023-02-18T00:14:14;2.17;;;1.02;;
22363;SDS011;11349;53.412;-1.328;2023-02-18T00:16:41;2.92;;;1.13;;
22363;SDS011;11349;53.412;-1.328;2023-02-18T00:19:09;1.08;;;0.50;;
22363;SDS011;11349;53.412;-1.328;2023-02-18T00:21:36;1.15;;;0.50;;
22363;SDS011;11349;53.412;-1.328;2023-02-18T00:24:03;1.08;;;0.40;;
22363;SDS011;11349;53.412;-1.328;2023-02-18T00:26:30;0.90;;;0.35;;
22363;SDS011;11349;53.412;-1.328;2023-02-18T00:28:55;1.05;;;0.50;;
22363;SDS011;11349;53.412;-1.328;2023-02-18T00:31:22;1.27;;;0.40;;
22363;SDS011;11349;53.412;-1.328;2023-02-18T00:33:49;0.68;;;0.40;;
22363;SDS011;11349;53.412;-1.328;2023-02-18T00:36:16;0.82;;;0.30;;
22363;SDS011;11349;53.412;-1.328;2023-02-18T00:38:53;0.50;;;0.30;;
22363;SDS011;11349;53.412;-1.328;2023-02-18T00:41:20;0.43;;;0.28;;
22363;SDS011;11349;53.412;-1.328;2023-02-18T00:43:47;1.20;;;0.30;;
22363;SDS011;11349;53.412;-1.328;2023-02-18T00:46:13;0.68;;;0.40;;
22363;SDS011;11349;53.412;-1.328;2023-02-18T00:48:39;1.02;;;0.50;;
22363;SDS011;11349;53.412;-1.328;2023-02-18T00:51:05;1.52;;;0.60;;
22363;SDS011;11349;53.412;-1.328;2023-02-18T00:53:31;1.15;;;0.50;;
22363;SDS011;11349;53.412;-1.328;2023-02-18T00:55:58;0.88;;;0.50;;
22363;SDS011;11349;53.412;-1.328;2023-02-18T00:58:24;0.45;;;0.25;;
22363;SDS011;11349;53.412;-1.328;2023-02-18T01:00:50;1.15;;;0.40;;
22363;SDS011;11349;53.412;-1.328;2023-02-18T01:03:17;0.68;;;0.30;;
22363;SDS011;11349;53.412;-1.328;2023-02-18T01:05:43;1.30;;;0.50;;
22363;SDS011;11349;53.412;-1.328;2023-02-18T01:08:09;0.80;;;0.20;;
22363;SDS011;11349;53.412;-1.328;2023-02-18T01:10:36;1.42;;;0.30;;
22363;SDS011;11349;53.412;-1.328;2023-02-18T01:13:06;1.77;;;0.40;;
22363;SDS011;11349;53.412;-1.328;2023-02-18T01:15:31;1.10;;;0.40;;
22363;SDS011;11349;53.412;-1.328;2023-02-18T01:17:57;1.30;;;0.52;;
22363;SDS011;11349;53.412;-1.328;2023-02-18T01:20:23;1.67;;;0.50;;
22363;SDS011;11349;53.412;-1.328;2023-02-18T01:22:49;1.92;;;0.43;;
22363;SDS011;11349;53.412;-1.328;2023-02-18T01:25:15;1.52;;;0.50;;
22363;SDS011;11349;53.412;-1.328;2023-02-18T01:27:41;0.73;;;0.40;;
22363;SDS011;11349;53.412;-1.328;2023-02-18T01:30:08;1.77;;;0.70;;
22363;SDS011;11349;53.412;-1.328;2023-02-18T01:32:36;2.22;;;0.50;;
22363;SDS011;11349;53.412;-1.328;2023-02-18T01:35:03;2.13;;;0.50;;
22363;SDS011;11349;53.412;-1.328;2023-02-18T01:37:30;1.45;;;0.40;;
22363;SDS011;11349;53.412;-1.328;2023-02-18T01:39:56;0.73;;;0.38;;
22363;SDS011;11349;53.412;-1.328;2023-02-18T01:42:23;2.10;;;0.40;;
22363;SDS011;11349;53.412;-1.328;2023-02-18T01:44:50;2.33;;;0.65;;
22363;SDS011;11349;53.412;-1.328;2023-02-18T01:47:16;3.67;;;0.95;;
22363;SDS011;11349;53.412;-1.328;2023-02-18T01:49:43;3.83;;;0.70;;
22363;SDS011;11349;53.412;-1.328;2023-02-18T01:52:13;1.98;;;0.50;;
22363;SDS011;11349;53.412;-1.328;2023-02-18T01:54:43;3.13;;;0.60;;
22363;SDS011;11349;53.412;-1.328;2023-02-18T01:57:20;2.75;;;0.50;;
22363;SDS011;11349;53.412;-1.328;2023-02-18T01:59:57;2.40;;;0.60;;
22363;SDS011;11349;53.412;-1.328;2023-02-18T02:02:28;4.13;;;0.98;;
22363;SDS011;11349;53.412;-1.328;2023-02-18T02:04:56;4.75;;;0.70;;
22363;SDS011;11349;53.412;-1.328;2023-02-18T02:07:22;4.00;;;0.70;;
22363;SDS011;11349;53.412;-1.328;2023-02-18T02:09:51;2.90;;;0.60;;
22363;SDS011;11349;53.412;-1.328;2023-02-18T02:15:03;3.45;;;0.93;;
22363;SDS011;11349;53.412;-1.328;2023-02-18T02:37:24;2.53;;;0.50;;
22363;SDS011;11349;53.412;-1.328;2023-02-18T02:42:31;2.53;;;0.80;;
22363;SDS011;11349;53.412;-1.328;2023-02-18T02:45:36;4.43;;;0.60;;
22363;SDS011;11349;53.412;-1.328;2023-02-18T02:50:54;4.18;;;0.45;;
22363;SDS011;11349;53.412;-1.328;2023-02-18T02:53:42;2.58;;;0.45;;
22363;SDS011;11349;53.412;-1.328;2023-02-18T02:56:19;2.05;;;0.60;;
22363;SDS011;11349;53.412;-1.328;2023-02-18T02:58:58;1.73;;;0.50;;
22363;SDS011;11349;53.412;-1.328;2023-02-18T03:07:13;5.43;;;1.90;;
22363;SDS011;11349;53.412;-1.328;2023-02-18T03:18:50;6.18;;;0.88;;
22363;SDS011;11349;53.412;-1.328;2023-02-18T03:21:10;5.95;;;1.00;;
22363;SDS011;11349;53.412;-1.328;2023-02-18T03:24:43;6.05;;;0.95;;
22363;SDS011;11349;53.412;-1.328;2023-02-18T03:27:04;6.35;;;1.40;;
22363;SDS011;11349;53.412;-1.328;2023-02-18T03:29:38;6.50;;;1.30;;
22363;SDS011;11349;53.412;-1.328;2023-02-18T03:32:06;6.03;;;1.20;;
22363;SDS011;11349;53.412;-1.328;2023-02-18T03:34:37;6.88;;;1.52;;
22363;SDS011;11349;53.412;-1.328;2023-02-18T03:37:07;5.82;;;1.27;;
22363;SDS011;11349;53.412;-1.328;2023-02-18T03:39:35;6.38;;;1.65;;
22363;SDS011;11349;53.412;-1.328;2023-02-18T03:42:03;5.20;;;1.27;;
22363;SDS011;11349;53.412;-1.328;2023-02-18T03:44:29;10.80;;;2.03;;
22363;SDS011;11349;53.412;-1.328;2023-02-18T03:46:55;7.78;;;1.80;;
22363;SDS011;11349;53.412;-1.328;2023-02-18T03:49:21;7.00;;;1.55;;
22363;SDS011;11349;53.412;-1.328;2023-02-18T03:51:47;7.28;;;2.08;;
22363;SDS011;11349;53.412;-1.328;2023-02-18T03:54:12;4.65;;;1.17;;
22363;SDS011;11349;53.412;-1.328;2023-02-18T03:56:38;5.45;;;1.20;;
22363;SDS011;11349;53.412;-1.328;2023-02-18T03:59:04;5.10;;;1.20;;
22363;SDS011;11349;53.412;-1.328;2023-02-18T04:01:30;7.80;;;1.48;;
22363;SDS011;11349;53.412;-1.328;2023-02-18T04:03:56;6.22;;;1.42;;
22363;SDS011;11349;53.412;-1.328;2023-02-18T04:06:22;5.10;;;1.08;;
22363;SDS011;11349;53.412;-1.328;2023-02-18T04:08:48;6.18;;;1.25;;
22363;SDS011;11349;53.412;-1.328;2023-02-18T04:11:14;4.18;;;1.42;;
22363;SDS011;11349;53.412;-1.328;2023-02-18T04:13:40;4.13;;;0.70;;
22363;SDS011;11349;53.412;-1.328;2023-02-18T04:16:06;4.22;;;1.10;;
22363;SDS011;11349;53.412;-1.328;2023-02-18T04:18:32;3.30;;;1.20;;
22363;SDS011;11349;53.412;-1.328;2023-02-18T04:20:58;3.13;;;0.75;;
22363;SDS011;11349;53.412;-1.328;2023-02-18T04:23:23;2.95;;;0.80;;
22363;SDS011;11349;53.412;-1.328;2023-02-18T04:25:49;4.22;;;0.90;;
22363;SDS011;11349;53.412;-1.328;2023-02-18T04:28:15;4.00;;;0.80;;
22363;SDS011;11349;53.412;-1.328;2023-02-18T04:30:42;3.33;;;1.10;;
22363;SDS011;11349;53.412;-1.328;2023-02-18T04:33:08;3.72;;;1.05;;
22363;SDS011;11349;53.412;-1.328;2023-02-18T04:35:34;2.45;;;0.40;;
22363;SDS011;11349;53.412;-1.328;2023-02-18T04:38:01;1.70;;;0.70;;
22363;SDS011;11349;53.412;-1.328;2023-02-18T04:40:27;2.55;;;0.50;;
22363;SDS011;11349;53.412;-1.328;2023-02-18T04:42:55;2.90;;;0.55;;
22363;SDS011;11349;53.412;-1.328;2023-02-18T04:45:24;3.42;;;0.90;;
22363;SDS011;11349;53.412;-1.328;2023-02-18T04:47:50;3.03;;;1.15;;
22363;SDS011;11349;53.412;-1.328;2023-02-18T04:50:16;4.28;;;1.48;;
22363;SDS011;11349;53.412;-1.328;2023-02-18T04:52:42;4.78;;;1.70;;
22363;SDS011;11349;53.412;-1.328;2023-02-18T04:55:08;4.85;;;1.70;;
22363;SDS011;11349;53.412;-1.328;2023-02-18T04:57:34;4.35;;;2.00;;
22363;SDS011;11349;53.412;-1.328;2023-02-18T04:59:59;5.22;;;1.80;;
22363;SDS011;11349;53.412;-1.328;2023-02-18T05:02:25;3.65;;;2.17;;
22363;SDS011;11349;53.412;-1.328;2023-02-18T05:04:51;3.47;;;2.10;;
22363;SDS011;11349;53.412;-1.328;2023-02-18T05:07:16;2.92;;;1.70;;
22363;SDS011;11349;53.412;-1.328;2023-02-18T05:09:42;3.65;;;1.38;;
22363;SDS011;11349;53.412;-1.328;2023-02-18T05:12:08;2.63;;;0.93;;
22363;SDS011;11349;53.412;-1.328;2023-02-18T05:14:34;1.92;;;0.77;;
22363;SDS011;11349;53.412;-1.328;2023-02-18T05:17:00;2.90;;;0.60;;
22363;SDS011;11349;53.412;-1.328;2023-02-18T05:19:25;1.25;;;0.50;;
22363;SDS011;11349;53.412;-1.328;2023-02-18T05:21:51;0.73;;;0.30;;
22363;SDS011;11349;53.412;-1.328;2023-02-18T05:24:16;0.80;;;0.40;;
22363;SDS011;11349;53.412;-1.328;2023-02-18T05:26:42;1.63;;;0.63;;
22363;SDS011;11349;53.412;-1.328;2023-02-18T05:29:08;1.35;;;0.40;;
22363;SDS011;11349;53.412;-1.328;2023-02-18T05:31:33;1.15;;;0.40;;
22363;SDS011;11349;53.412;-1.328;2023-02-18T05:33:59;5.03;;;0.70;;
22363;SDS011;11349;53.412;-1.328;2023-02-18T05:36:25;2.60;;;0.40;;
22363;SDS011;11349;53.412;-1.328;2023-02-18T05:38:51;1.30;;;0.40;;
22363;SDS011;11349;53.412;-1.328;2023-02-18T05:41:16;2.78;;;0.70;;
22363;SDS011;11349;53.412;-1.328;2023-02-18T05:43:42;1.08;;;0.60;;
22363;SDS011;11349;53.412;-1.328;2023-02-18T05:46:26;0.65;;;0.40;;
22363;SDS011;11349;53.412;-1.328;2023-02-18T05:48:52;2.28;;;0.70;;
22363;SDS011;11349;53.412;-1.328;2023-02-18T05:51:18;1.80;;;0.60;;
22363;SDS011;11349;53.412;-1.328;2023-02-18T05:53:43;1.13;;;0.52;;
22363;SDS011;11349;53.412;-1.328;2023-02-18T05:56:09;1.50;;;0.50;;
22363;SDS011;11349;53.412;-1.328;2023-02-18T05:58:35;1.95;;;0.63;;
22363;SDS011;11349;53.412;-1.328;2023-02-18T06:01:01;1.23;;;0.82;;
22363;SDS011;11349;53.412;-1.328;2023-02-18T06:03:27;2.42;;;1.08;;
22363;SDS011;11349;53.412;-1.328;2023-02-18T06:05:52;1.90;;;0.63;;
22363;SDS011;11349;53.412;-1.328;2023-02-18T06:08:18;2.05;;;0.43;;
22363;SDS011;11349;53.412;-1.328;2023-02-18T06:10:46;2.50;;;0.60;;
22363;SDS011;11349;53.412;-1.328;2023-02-18T06:13:12;2.92;;;0.50;;
22363;SDS011;11349;53.412;-1.328;2023-02-18T06:15:38;1.95;;;0.57;;
22363;SDS011;11349;53.412;-1.328;2023-02-18T06:18:05;1.83;;;0.50;;
22363;SDS011;11349;53.412;-1.328;2023-02-18T06:20:31;2.15;;;0.50;;
22363;SDS011;11349;53.412;-1.328;2023-02-18T06:22:57;1.08;;;0.75;;
22363;SDS011;11349;53.412;-1.328;2023-02-18T06:25:22;1.45;;;0.70;;
22363;SDS011;11349;53.412;-1.328;2023-02-18T06:27:48;4.68;;;0.93;;
22363;SDS011;11349;53.412;-1.328;2023-02-18T06:30:14;1.42;;;0.80;;
22363;SDS011;11349;53.412;-1.328;2023-02-18T06:32:40;1.98;;;0.77;;
22363;SDS011;11349;53.412;-1.328;2023-02-18T06:35:06;2.28;;;0.57;;
22363;SDS011;11349;53.412;-1.328;2023-02-18T06:37:31;1.83;;;0.73;;
22363;SDS011;11349;53.412;-1.328;2023-02-18T06:39:57;1.33;;;0.40;;
22363;SDS011;11349;53.412;-1.328;2023-02-18T06:42:23;0.52;;;0.40;;
22363;SDS011;11349;53.412;-1.328;2023-02-18T06:44:49;0.68;;;0.30;;
22363;SDS011;11349;53.412;-1.328;2023-02-18T06:47:14;1.33;;;0.20;;
22363;SDS011;11349;53.412;-1.328;2023-02-18T06:49:40;2.30;;;0.52;;
22363;SDS011;11349;53.412;-1.328;2023-02-18T06:52:06;1.55;;;0.40;;
22363;SDS011;11349;53.412;-1.328;2023-02-18T06:54:32;3.65;;;0.98;;
22363;SDS011;11349;53.412;-1.328;2023-02-18T06:56:58;4.28;;;0.90;;
22363;SDS011;11349;53.412;-1.328;2023-02-18T06:59:24;5.95;;;0.70;;
22363;SDS011;11349;53.412;-1.328;2023-02-18T07:01:50;7.57;;;1.08;;
22363;SDS011;11349;53.412;-1.328;2023-02-18T07:04:15;4.88;;;1.00;;
22363;SDS011;11349;53.412;-1.328;2023-02-18T07:06:41;4.75;;;1.23;;
22363;SDS011;11349;53.412;-1.328;2023-02-18T07:09:07;5.03;;;0.90;;
22363;SDS011;11349;53.412;-1.328;2023-02-18T07:11:32;7.82;;;1.02;;
22363;SDS011;11349;53.412;-1.328;2023-02-18T07:13:58;6.00;;;1.42;;
22363;SDS011;11349;53.412;-1.328;2023-02-18T07:16:24;4.25;;;0.95;;
22363;SDS011;11349;53.412;-1.328;2023-02-18T07:18:50;7.18;;;1.30;;
22363;SDS011;11349;53.412;-1.328;2023-02-18T07:21:15;11.18;;;1.45;;
22363;SDS011;11349;53.412;-1.328;2023-02-18T07:23:41;4.82;;;1.25;;
22363;SDS011;11349;53.412;-1.328;2023-02-18T07:26:09;5.63;;;2.47;;
22363;SDS011;11349;53.412;-1.328;2023-02-18T07:28:36;5.30;;;1.05;;
22363;SDS011;11349;53.412;-1.328;2023-02-18T07:31:03;3.53;;;0.90;;
22363;SDS011;11349;53.412;-1.328;2023-02-18T07:33:29;7.40;;;0.95;;
22363;SDS011;11349;53.412;-1.328;2023-02-18T07:35:55;9.63;;;2.63;;
22363;SDS011;11349;53.412;-1.328;2023-02-18T07:38:22;4.85;;;1.45;;
22363;SDS011;11349;53.412;-1.328;2023-02-18T07:40:49;6.72;;;1.35;;
22363;SDS011;11349;53.412;-1.328;2023-02-18T07:43:15;7.50;;;1.30;;
22363;SDS011;11349;53.412;-1.328;2023-02-18T07:45:41;7.95;;;1.27;;
22363;SDS011;11349;53.412;-1.328;2023-02-18T07:48:07;9.07;;;1.60;;
22363;SDS011;11349;53.412;-1.328;2023-02-18T07:50:33;6.50;;;1.33;;
22363;SDS011;11349;53.412;-1.328;2023-02-18T07:53:04;7.03;;;1.73;;
22363;SDS011;11349;53.412;-1.328;2023-02-18T07:55:31;8.93;;;1.42;;
22363;SDS011;11349;53.412;-1.328;2023-02-18T07:58:22;7.07;;;1.45;;
22363;SDS011;11349;53.412;-1.328;2023-02-18T08:00:50;8.60;;;1.60;;
22363;SDS011;11349;53.412;-1.328;2023-02-18T08:03:17;11.50;;;2.17;;
22363;SDS011;11349;53.412;-1.328;2023-02-18T08:05:46;8.85;;;1.70;;
22363;SDS011;11349;53.412;-1.328;2023-02-18T08:08:13;7.40;;;1.42;;
22363;SDS011;11349;53.412;-1.328;2023-02-18T08:10:41;7.05;;;1.20;;
22363;SDS011;11349;53.412;-1.328;2023-02-18T08:13:07;4.05;;;1.20;;
22363;SDS011;11349;53.412;-1.328;2023-02-18T08:15:34;10.80;;;1.80;;
22363;SDS011;11349;53.412;-1.328;2023-02-18T08:17:59;9.32;;;1.77;;
22363;SDS011;11349;53.412;-1.328;2023-02-18T08:20:25;7.63;;;1.98;;
22363;SDS011;11349;53.412;-1.328;2023-02-18T08:22:51;8.52;;;2.13;;
22363;SDS011;11349;53.412;-1.328;2023-02-18T08:25:17;7.05;;;1.30;;
22363;SDS011;11349;53.412;-1.328;2023-02-18T08:27:43;12.50;;;1.75;;
22363;SDS011;11349;53.412;-1.328;2023-02-18T08:30:09;8.30;;;1.65;;
22363;SDS011;11349;53.412;-1.328;2023-02-18T08:32:35;7.85;;;1.70;;
22363;SDS011;11349;53.412;-1.328;2023-02-18T08:35:02;8.45;;;1.77;;
22363;SDS011;11349;53.412;-1.328;2023-02-18T08:37:29;10.23;;;1.90;;
22363;SDS011;11349;53.412;-1.328;2023-02-18T08:39:55;6.95;;;1.70;;
22363;SDS011;11349;53.412;-1.328;2023-02-18T08:42:20;14.05;;;2.60;;
22363;SDS011;11349;53.412;-1.328;2023-02-18T08:44:46;7.43;;;1.60;;
22363;SDS011;11349;53.412;-1.328;2023-02-18T08:47:12;10.25;;;2.08;;
22363;SDS011;11349;53.412;-1.328;2023-02-18T08:49:38;9.82;;;1.52;;
22363;SDS011;11349;53.412;-1.328;2023-02-18T08:52:03;10.93;;;2.10;;
22363;SDS011;11349;53.412;-1.328;2023-02-18T08:54:29;10.73;;;2.33;;
22363;SDS011;11349;53.412;-1.328;2023-02-18T08:56:56;7.70;;;2.05;;
22363;SDS011;11349;53.412;-1.328;2023-02-18T08:59:22;13.05;;;1.92;;
22363;SDS011;11349;53.412;-1.328;2023-02-18T09:01:49;9.18;;;1.92;;
22363;SDS011;11349;53.412;-1.328;2023-02-18T09:04:15;7.47;;;1.85;;
22363;SDS011;11349;53.412;-1.328;2023-02-18T09:06:40;14.32;;;2.28;;
22363;SDS011;11349;53.412;-1.328;2023-02-18T09:09:06;10.15;;;2.55;;
22363;SDS011;11349;53.412;-1.328;2023-02-18T09:11:32;7.60;;;1.75;;
22363;SDS011;11349;53.412;-1.328;2023-02-18T09:13:58;13.23;;;2.17;;
22363;SDS011;11349;53.412;-1.328;2023-02-18T09:16:24;13.13;;;2.53;;
22363;SDS011;11349;53.412;-1.328;2023-02-18T09:18:52;7.88;;;2.03;;
22363;SDS011;11349;53.412;-1.328;2023-02-18T09:21:17;9.00;;;2.85;;
22363;SDS011;11349;53.412;-1.328;2023-02-18T09:23:44;9.15;;;1.77;;
22363;SDS011;11349;53.412;-1.328;2023-02-18T09:26:12;10.80;;;2.25;;
22363;SDS011;11349;53.412;-1.328;2023-02-18T09:28:39;12.27;;;1.85;;
22363;SDS011;11349;53.412;-1.328;2023-02-18T09:31:05;12.18;;;2.05;;
22363;SDS011;11349;53.412;-1.328;2023-02-18T09:33:33;12.88;;;2.55;;
22363;SDS011;11349;53.412;-1.328;2023-02-18T09:36:01;9.73;;;2.20;;
22363;SDS011;11349;53.412;-1.328;2023-02-18T09:38:29;6.60;;;1.70;;
22363;SDS011;11349;53.412;-1.328;2023-02-18T09:40:55;13.35;;;2.45;;
22363;SDS011;11349;53.412;-1.328;2023-02-18T09:43:28;8.43;;;1.75;;
22363;SDS011;11349;53.412;-1.328;2023-02-18T09:46:19;12.95;;;2.00;;
22363;SDS011;11349;53.412;-1.328;2023-02-18T09:48:48;6.80;;;2.00;;
22363;SDS011;11349;53.412;-1.328;2023-02-18T09:51:17;10.88;;;1.83;;
22363;SDS011;11349;53.412;-1.328;2023-02-18T09:53:44;6.50;;;1.42;;
22363;SDS011;11349;53.412;-1.328;2023-02-18T09:56:14;9.63;;;2.22;;
22363;SDS011;11349;53.412;-1.328;2023-02-18T09:58:49;9.43;;;3.40;;
22363;SDS011;11349;53.412;-1.328;2023-02-18T10:04:01;6.90;;;1.55;;
22363;SDS011;11349;53.412;-1.328;2023-02-18T10:06:37;7.65;;;1.40;;
22363;SDS011;11349;53.412;-1.328;2023-02-18T10:11:54;9.77;;;1.63;;
22363;SDS011;11349;53.412;-1.328;2023-02-18T10:14:35;9.93;;;2.65;;
22363;SDS011;11349;53.412;-1.328;2023-02-18T10:17:01;8.70;;;2.10;;
22363;SDS011;11349;53.412;-1.328;2023-02-18T10:19:30;8.25;;;1.58;;
22363;SDS011;11349;53.412;-1.328;2023-02-18T10:22:00;5.15;;;1.23;;
22363;SDS011;11349;53.412;-1.328;2023-02-18T10:24:32;10.45;;;2.17;;
22363;SDS011;11349;53.412;-1.328;2023-02-18T10:27:04;7.15;;;1.45;;
22363;SDS011;11349;53.412;-1.328;2023-02-18T10:29:32;6.93;;;1.95;;
22363;SDS011;11349;53.412;-1.328;2023-02-18T10:32:03;5.07;;;1.25;;
22363;SDS011;11349;53.412;-1.328;2023-02-18T10:34:37;8.32;;;1.55;;
22363;SDS011;11349;53.412;-1.328;2023-02-18T10:40:21;7.65;;;1.48;;
22363;SDS011;11349;53.412;-1.328;2023-02-18T10:43:02;4.10;;;1.05;;
22363;SDS011;11349;53.412;-1.328;2023-02-18T10:45:56;4.18;;;1.00;;
22363;SDS011;11349;53.412;-1.328;2023-02-18T10:48:40;6.22;;;1.10;;
22363;SDS011;11349;53.412;-1.328;2023-02-18T10:51:19;6.50;;;1.20;;
22363;SDS011;11349;53.412;-1.328;2023-02-18T10:53:51;6.47;;;1.40;;
22363;SDS011;11349;53.412;-1.328;2023-02-18T10:59:18;5.28;;;1.25;;
22363;SDS011;11349;53.412;-1.328;2023-02-18T11:01:44;4.97;;;1.17;;
22363;SDS011;11349;53.412;-1.328;2023-02-18T11:04:17;5.80;;;1.60;;
22363;SDS011;11349;53.412;-1.328;2023-02-18T11:06:47;7.93;;;1.77;;
22363;SDS011;11349;53.412;-1.328;2023-02-18T11:12:04;8.52;;;1.50;;
22363;SDS011;11349;53.412;-1.328;2023-02-18T11:14:48;6.22;;;1.25;;
22363;SDS011;11349;53.412;-1.328;2023-02-18T11:17:34;5.95;;;1.45;;
22363;SDS011;11349;53.412;-1.328;2023-02-18T11:22:49;6.22;;;1.00;;
22363;SDS011;11349;53.412;-1.328;2023-02-18T11:25:19;5.40;;;1.10;;
22363;SDS011;11349;53.412;-1.328;2023-02-18T11:27:58;4.60;;;1.10;;
22363;SDS011;11349;53.412;-1.328;2023-02-18T11:30:39;4.20;;;1.00;;
22363;SDS011;11349;53.412;-1.328;2023-02-18T11:33:38;4.85;;;1.35;;
22363;SDS011;11349;53.412;-1.328;2023-02-18T11:38:50;5.97;;;1.45;;
22363;SDS011;11349;53.412;-1.328;2023-02-18T11:41:21;5.47;;;1.00;;
22363;SDS011;11349;53.412;-1.328;2023-02-18T11:43:59;4.53;;;1.10;;
22363;SDS011;11349;53.412;-1.328;2023-02-18T11:46:26;5.55;;;0.90;;
22363;SDS011;11349;53.412;-1.328;2023-02-18T11:48:53;4.18;;;0.77;;
22363;SDS011;11349;53.412;-1.328;2023-02-18T11:54:20;4.55;;;1.73;;
22363;SDS011;11349;53.412;-1.328;2023-02-18T11:56:53;2.88;;;0.88;;
22363;SDS011;11349;53.412;-1.328;2023-02-18T11:59:25;3.42;;;1.13;;
22363;SDS011;11349;53.412;-1.328;2023-02-18T12:01:59;5.85;;;0.98;;
22363;SDS011;11349;53.412;-1.328;2023-02-18T12:04:37;3.38;;;0.80;;
22363;SDS011;11349;53.412;-1.328;2023-02-18T12:07:19;3.88;;;1.10;;
22363;SDS011;11349;53.412;-1.328;2023-02-18T12:09:55;3.75;;;0.93;;
22363;SDS011;11349;53.412;-1.328;2023-02-18T12:12:28;5.70;;;1.30;;
22363;SDS011;11349;53.412;-1.328;2023-02-18T12:14:57;4.30;;;0.80;;
22363;SDS011;11349;53.412;-1.328;2023-02-18T12:20:05;5.93;;;1.30;;
22363;SDS011;11349;53.412;-1.328;2023-02-18T12:23:00;7.22;;;1.05;;
22363;SDS011;11349;53.412;-1.328;2023-02-18T12:31:18;4.45;;;0.68;;
22363;SDS011;11349;53.412;-1.328;2023-02-18T12:35:08;4.55;;;1.02;;
22363;SDS011;11349;53.412;-1.328;2023-02-18T13:05:00;8.27;;;1.42;;
22363;SDS011;11349;53.412;-1.328;2023-02-18T13:10:29;5.15;;;1.48;;
22363;SDS011;11349;53.412;-1.328;2023-02-18T13:15:38;4.95;;;1.30;;
22363;SDS011;11349;53.412;-1.328;2023-02-18T13:18:11;7.78;;;1.70;;
22363;SDS011;11349;53.412;-1.328;2023-02-18T13:20:53;4.32;;;1.15;;
22363;SDS011;11349;53.412;-1.328;2023-02-18T13:23:23;7.05;;;2.10;;
22363;SDS011;11349;53.412;-1.328;2023-02-18T13:25:59;5.40;;;1.33;;
22363;SDS011;11349;53.412;-1.328;2023-02-18T13:28:42;4.38;;;1.50;;
22363;SDS011;11349;53.412;-1.328;2023-02-18T13:34:26;7.70;;;2.30;;
22363;SDS011;11349;53.412;-1.328;2023-02-18T13:37:10;7.22;;;1.30;;
22363;SDS011;11349;53.412;-1.328;2023-02-18T13:39:49;7.35;;;1.30;;
22363;SDS011;11349;53.412;-1.328;2023-02-18T13:50:38;6.25;;;1.13;;
22363;SDS011;11349;53.412;-1.328;2023-02-18T13:55:41;7.50;;;1.75;;
22363;SDS011;11349;53.412;-1.328;2023-02-18T13:58:42;4.47;;;0.95;;
22363;SDS011;11349;53.412;-1.328;2023-02-18T14:01:19;5.70;;;1.02;;
22363;SDS011;11349;53.412;-1.328;2023-02-18T14:03:58;3.90;;;0.90;;
22363;SDS011;11349;53.412;-1.328;2023-02-18T14:06:31;5.80;;;1.00;;
22363;SDS011;11349;53.412;-1.328;2023-02-18T14:11:55;4.47;;;0.80;;
22363;SDS011;11349;53.412;-1.328;2023-02-18T14:14:39;7.90;;;1.08;;
22363;SDS011;11349;53.412;-1.328;2023-02-18T14:19:42;4.78;;;1.40;;
22363;SDS011;11349;53.412;-1.328;2023-02-18T14:22:44;2.63;;;0.75;;
22363;SDS011;11349;53.412;-1.328;2023-02-18T14:27:46;4.25;;;1.50;;
22363;SDS011;11349;53.412;-1.328;2023-02-18T14:32:48;7.00;;;1.20;;
22363;SDS011;11349;53.412;-1.328;2023-02-18T14:46:15;4.03;;;0.82;;
22363;SDS011;11349;53.412;-1.328;2023-02-18T14:51:37;3.92;;;1.17;;
22363;SDS011;11349;53.412;-1.328;2023-02-18T14:54:15;3.45;;;0.75;;
22363;SDS011;11349;53.412;-1.328;2023-02-18T14:56:59;2.20;;;0.70;;
22363;SDS011;11349;53.412;-1.328;2023-02-18T14:59:36;3.90;;;0.63;;
22363;SDS011;11349;53.412;-1.328;2023-02-18T15:02:26;6.55;;;0.90;;
22363;SDS011;11349;53.412;-1.328;2023-02-18T15:05:04;3.55;;;0.82;;
22363;SDS011;11349;53.412;-1.328;2023-02-18T15:07:37;5.03;;;0.95;;
22363;SDS011;11349;53.412;-1.328;2023-02-18T15:10:03;5.55;;;0.88;;
22363;SDS011;11349;53.412;-1.328;2023-02-18T15:12:29;4.80;;;0.90;;
22363;SDS011;11349;53.412;-1.328;2023-02-18T15:14:55;6.70;;;1.20;;
22363;SDS011;11349;53.412;-1.328;2023-02-18T15:17:27;5.95;;;1.45;;
22363;SDS011;11349;53.412;-1.328;2023-02-18T15:19:57;6.65;;;1.85;;
22363;SDS011;11349;53.412;-1.328;2023-02-18T15:22:30;5.32;;;1.17;;
22363;SDS011;11349;53.412;-1.328;2023-02-18T15:24:59;9.68;;;1.45;;
22363;SDS011;11349;53.412;-1.328;2023-02-18T15:27:30;7.75;;;1.30;;
22363;SDS011;11349;53.412;-1.328;2023-02-18T15:32:52;3.45;;;0.93;;
22363;SDS011;11349;53.412;-1.328;2023-02-18T15:35:20;4.60;;;1.05;;
22363;SDS011;11349;53.412;-1.328;2023-02-18T15:37:53;5.20;;;1.10;;
22363;SDS011;11349;53.412;-1.328;2023-02-18T15:40:22;5.00;;;1.05;;
22363;SDS011;11349;53.412;-1.328;2023-02-18T15:42:58;4.95;;;1.15;;
22363;SDS011;11349;53.412;-1.328;2023-02-18T15:48:02;5.82;;;1.13;;
22363;SDS011;11349;53.412;-1.328;2023-02-18T15:50:36;3.92;;;0.95;;
22363;SDS011;11349;53.412;-1.328;2023-02-18T15:53:13;4.45;;;1.02;;
22363;SDS011;11349;53.412;-1.328;2023-02-18T15:55:41;8.35;;;1.30;;
22363;SDS011;11349;53.412;-1.328;2023-02-18T15:58:29;5.10;;;1.17;;
22363;SDS011;11349;53.412;-1.328;2023-02-18T16:01:04;6.63;;;1.70;;
22363;SDS011;11349;53.412;-1.328;2023-02-18T16:03:52;8.90;;;1.60;;
22363;SDS011;11349;53.412;-1.328;2023-02-18T16:08:57;4.32;;;1.52;;
22363;SDS011;11349;53.412;-1.328;2023-02-18T16:11:32;7.75;;;1.83;;
22363;SDS011;11349;53.412;-1.328;2023-02-18T16:14:00;4.15;;;0.90;;
22363;SDS011;11349;53.412;-1.328;2023-02-18T16:16:34;5.43;;;1.02;;
22363;SDS011;11349;53.412;-1.328;2023-02-18T16:19:03;10.52;;;1.92;;
22363;SDS011;11349;53.412;-1.328;2023-02-18T16:21:30;8.25;;;1.00;;
22363;SDS011;11349;53.412;-1.328;2023-02-18T16:24:03;6.38;;;1.15;;
22363;SDS011;11349;53.412;-1.328;2023-02-18T16:26:49;5.10;;;1.00;;
22363;SDS011;11349;53.412;-1.328;2023-02-18T16:29:20;4.00;;;0.90;;
22363;SDS011;11349;53.412;-1.328;2023-02-18T16:32:00;4.75;;;1.23;;
22363;SDS011;11349;53.412;-1.328;2023-02-18T16:34:26;4.75;;;1.10;;
22363;SDS011;11349;53.412;-1.328;2023-02-18T16:36:52;4.60;;;1.05;;
22363;SDS011;11349;53.412;-1.328;2023-02-18T16:39:36;4.68;;;0.98;;
22363;SDS011;11349;53.412;-1.328;2023-02-18T16:42:04;4.00;;;1.00;;
22363;SDS011;11349;53.412;-1.328;2023-02-18T16:44:34;3.85;;;0.93;;
22363;SDS011;11349;53.412;-1.328;2023-02-18T16:47:00;4.45;;;0.85;;
22363;SDS011;11349;53.412;-1.328;2023-02-18T16:49:26;4.18;;;1.05;;
22363;SDS011;11349;53.412;-1.328;2023-02-18T16:51:53;5.70;;;1.15;;
22363;SDS011;11349;53.412;-1.328;2023-02-18T16:54:19;2.90;;;0.77;;
22363;SDS011;11349;53.412;-1.328;2023-02-18T16:56:44;2.63;;;0.70;;
22363;SDS011;11349;53.412;-1.328;2023-02-18T16:59:10;4.85;;;1.08;;
22363;SDS011;11349;53.412;-1.328;2023-02-18T17:01:40;7.07;;;2.30;;
22363;SDS011;11349;53.412;-1.328;2023-02-18T17:04:12;4.32;;;1.50;;
22363;SDS011;11349;53.412;-1.328;2023-02-18T17:06:39;4.68;;;1.58;;
22363;SDS011;11349;53.412;-1.328;2023-02-18T17:09:10;5.00;;;1.60;;
22363;SDS011;11349;53.412;-1.328;2023-02-18T17:11:50;4.63;;;1.33;;
22363;SDS011;11349;53.412;-1.328;2023-02-18T17:14:20;6.25;;;2.65;;
22363;SDS011;11349;53.412;-1.328;2023-02-18T17:16:47;10.80;;;5.28;;
22363;SDS011;11349;53.412;-1.328;2023-02-18T17:19:14;7.07;;;3.20;;
22363;SDS011;11349;53.412;-1.328;2023-02-18T17:21:40;8.43;;;4.03;;
22363;SDS011;11349;53.412;-1.328;2023-02-18T17:24:16;64.68;;;47.67;;